Time;durP1;ratioP1;P1;durP2;ratioP2;P2;SDS_P1;SDS_P2;PMS_P1;PMS_P2;Temp;Humidity;BMP_temperature;BMP_pressure;BME280_temperature;BME280_humidity;BME280_pressure;Samples;Min_cycle;Max_cycle;Signal;HPM_P1;HPM_P2
2021/01/12 00:01:59;;;;;;;22.85;5.15;;;7.00;96.40;;;;;;4995647;28;20054;-58
2021/01/12 00:04:24;;;;;;;12.75;4.72;;;6.90;96.80;;;;;;4995774;28;20510;-59
2021/01/12 00:06:50;;;;;;;17.92;5.63;;;6.90;96.70;;;;;;4995543;28;20053;-59
2021/01/12 00:09:16;;;;;;;13.68;5.03;;;6.90;96.70;;;;;;4995853;28;20046;-59
2021/01/12 00:11:42;;;;;;;10.60;4.13;;;6.90;96.80;;;;;;4995808;28;20066;-59
2021/01/12 00:16:52;;;;;;;10.68;4.25;;;7.00;96.70;;;;;;4995439;28;20061;-59
2021/01/12 00:19:17;;;;;;;12.80;5.07;;;7.10;96.40;;;;;;4995333;28;20042;-59
2021/01/12 00:21:43;;;;;;;13.35;4.68;;;7.00;96.70;;;;;;4995444;28;20057;-59
2021/01/12 00:24:09;;;;;;;11.82;5.00;;;7.00;96.50;;;;;;4995832;28;20058;-59
2021/01/12 00:26:35;;;;;;;13.80;5.18;;;7.00;96.50;;;;;;4994345;28;20114;-59
2021/01/12 00:29:01;;;;;;;16.58;5.25;;;7.00;96.70;;;;;;4995791;28;20049;-59
2021/01/12 00:31:28;;;;;;;16.48;4.22;;;7.00;96.70;;;;;;4995540;28;20046;-59
2021/01/12 00:33:53;;;;;;;12.27;4.95;;;7.00;96.70;;;;;;4995361;28;20049;-58
2021/01/12 00:36:20;;;;;;;7.88;4.35;;;6.90;97.00;;;;;;4995210;28;20476;-58
2021/01/12 00:38:45;;;;;;;11.45;4.35;;;7.00;96.90;;;;;;4995304;28;20082;-59
2021/01/12 00:41:11;;;;;;;21.08;5.20;;;7.00;96.90;;;;;;4995222;28;20046;-59
2021/01/12 00:43:37;;;;;;;13.45;4.70;;;7.00;96.90;;;;;;4995240;28;20058;-59
2021/01/12 00:46:07;;;;;;;12.88;3.95;;;6.90;96.90;;;;;;4997228;28;20042;-59
2021/01/12 00:48:33;;;;;;;6.70;3.40;;;7.00;97.00;;;;;;4994759;28;20448;-59
2021/01/12 00:50:58;;;;;;;11.32;4.50;;;7.00;96.70;;;;;;4995123;28;20121;-59
2021/01/12 00:53:24;;;;;;;13.60;3.53;;;6.90;97.00;;;;;;4995034;28;20477;-58
2021/01/12 00:55:50;;;;;;;9.98;4.32;;;7.00;96.80;;;;;;5003941;28;20089;-59
2021/01/12 00:58:16;;;;;;;12.00;4.38;;;7.00;96.90;;;;;;4995039;28;20469;-58
2021/01/12 01:00:41;;;;;;;8.07;3.13;;;7.00;96.70;;;;;;4994551;28;20105;-59
2021/01/12 01:03:07;;;;;;;9.52;3.50;;;7.00;96.70;;;;;;4994960;28;20046;-59
2021/01/12 01:05:33;;;;;;;7.38;3.20;;;7.10;96.80;;;;;;4994634;28;20552;-59
2021/01/12 01:08:00;;;;;;;10.40;3.30;;;7.10;96.70;;;;;;4994433;28;20046;-59
2021/01/12 01:10:25;;;;;;;8.23;3.38;;;7.00;96.70;;;;;;4993983;28;20045;-58
2021/01/12 01:12:51;;;;;;;13.75;4.57;;;7.00;96.80;;;;;;4994571;28;20405;-59
2021/01/12 01:15:17;;;;;;;13.43;3.95;;;7.00;96.90;;;;;;4994805;28;20539;-58
2021/01/12 01:17:43;;;;;;;11.65;3.38;;;7.00;96.80;;;;;;4994402;28;20046;-59
2021/01/12 01:20:09;;;;;;;12.80;4.20;;;7.00;96.80;;;;;;4992954;28;20085;-59
2021/01/12 01:22:35;;;;;;;12.65;4.25;;;7.00;96.90;;;;;;4994573;28;20042;-58
2021/01/12 01:25:00;;;;;;;13.88;3.97;;;7.00;96.80;;;;;;4992443;28;20085;-59
2021/01/12 01:27:26;;;;;;;10.73;3.58;;;7.00;97.20;;;;;;4994073;28;20049;-59
2021/01/12 01:29:52;;;;;;;13.70;4.47;;;7.10;96.80;;;;;;4994190;28;20046;-59
2021/01/12 01:32:17;;;;;;;13.43;4.63;;;7.10;96.70;;;;;;4994322;28;20073;-59
2021/01/12 01:34:43;;;;;;;13.48;4.00;;;7.10;96.70;;;;;;4994116;28;20042;-59
2021/01/12 01:37:09;;;;;;;15.23;4.57;;;7.10;96.80;;;;;;4993829;28;20144;-59
2021/01/12 01:39:35;;;;;;;12.02;4.07;;;7.10;96.70;;;;;;4994307;28;20378;-59
2021/01/12 01:42:02;;;;;;;11.43;3.78;;;7.10;96.70;;;;;;4994043;28;20497;-59
2021/01/12 01:44:28;;;;;;;11.23;3.72;;;7.00;96.80;;;;;;4994170;28;20062;-59
2021/01/12 01:46:55;;;;;;;10.00;4.22;;;7.10;96.80;;;;;;4994130;28;20049;-59
2021/01/12 01:49:21;;;;;;;11.07;3.75;;;7.10;96.80;;;;;;4993664;28;20050;-59
2021/01/12 01:51:47;;;;;;;13.20;3.47;;;7.10;96.90;;;;;;4993911;28;20480;-59
2021/01/12 01:54:14;;;;;;;10.23;3.47;;;7.10;97.00;;;;;;4993933;28;20046;-59
2021/01/12 01:56:40;;;;;;;12.10;3.75;;;7.10;96.90;;;;;;4993525;28;20049;-58
2021/01/12 01:59:05;;;;;;;9.57;3.70;;;7.10;97.00;;;;;;4993712;28;20141;-58
2021/01/12 02:01:34;;;;;;;8.60;3.80;;;7.10;97.10;;;;;;4993733;28;20133;-59
2021/01/12 02:04:10;;;;;;;13.90;4.35;;;7.10;97.10;;;;;;4993848;28;20054;-59
2021/01/12 02:06:37;;;;;;;8.60;3.40;;;7.10;97.10;;;;;;4993649;28;20046;-59
2021/01/12 02:09:07;;;;;;;9.07;3.13;;;7.10;97.10;;;;;;4993832;28;20050;-60
2021/01/12 02:11:39;;;;;;;7.65;3.25;;;7.10;97.00;;;;;;4993489;28;20140;-58
2021/01/12 02:14:09;;;;;;;8.68;3.22;;;7.10;97.00;;;;;;4993879;28;20121;-59
2021/01/12 02:16:35;;;;;;;7.88;3.83;;;7.10;97.10;;;;;;4993389;28;20050;-59
2021/01/12 02:19:03;;;;;;;11.63;3.20;;;7.10;97.00;;;;;;4993592;28;20050;-59
2021/01/12 02:21:31;;;;;;;11.90;3.80;;;7.00;97.30;;;;;;4992974;28;20108;-59
2021/01/12 02:23:58;;;;;;;6.55;3.10;;;7.10;97.30;;;;;;4993453;28;20046;-59
2021/01/12 02:26:25;;;;;;;10.80;3.30;;;7.10;97.50;;;;;;4993458;28;20046;-59
2021/01/12 02:28:52;;;;;;;5.95;3.42;;;7.10;97.20;;;;;;4993222;28;20049;-59
2021/01/12 02:31:17;;;;;;;8.55;3.10;;;7.10;97.20;;;;;;4993469;28;20046;-59
2021/01/12 02:33:49;;;;;;;7.50;3.33;;;7.00;97.50;;;;;;4993016;28;20038;-59
2021/01/12 02:36:20;;;;;;;5.50;3.10;;;7.00;97.60;;;;;;4993237;28;20050;-58
2021/01/12 02:38:46;;;;;;;7.50;3.22;;;7.10;97.40;;;;;;4993183;28;20046;-59
2021/01/12 02:41:15;;;;;;;5.90;3.05;;;7.20;97.20;;;;;;4993155;28;20125;-59
2021/01/12 02:43:41;;;;;;;17.50;3.83;;;7.20;97.00;;;;;;4994819;28;20046;-59
2021/01/12 02:46:08;;;;;;;10.77;3.47;;;7.20;97.20;;;;;;4992057;28;20050;-59
2021/01/12 02:48:34;;;;;;;9.23;3.58;;;7.20;97.30;;;;;;4992284;28;20046;-58
2021/01/12 02:51:00;;;;;;;13.98;3.72;;;7.20;97.20;;;;;;4991524;28;20044;-59
2021/01/12 02:53:25;;;;;;;8.35;3.13;;;7.20;97.10;;;;;;4992916;28;20082;-59
2021/01/12 02:55:51;;;;;;;9.05;3.47;;;7.20;97.20;;;;;;4992667;28;20042;-59
2021/01/12 02:58:17;;;;;;;6.10;3.42;;;7.20;97.40;;;;;;4992964;28;20053;-59
2021/01/12 03:00:44;;;;;;;5.80;3.28;;;7.20;97.30;;;;;;4992583;28;20045;-58
2021/01/12 03:03:09;;;;;;;10.60;3.90;;;7.20;97.20;;;;;;4992792;28;20046;-58
2021/01/12 03:05:35;;;;;;;8.60;3.40;;;7.20;97.20;;;;;;4992422;28;20052;-59
2021/01/12 03:08:02;;;;;;;8.90;3.55;;;7.20;97.20;;;;;;4992421;28;20133;-59
2021/01/12 03:10:28;;;;;;;11.00;4.18;;;7.20;97.30;;;;;;4992551;28;20069;-59
2021/01/12 03:12:55;;;;;;;6.68;3.22;;;7.20;97.10;;;;;;4992653;28;20042;-59
2021/01/12 03:15:22;;;;;;;10.57;3.88;;;7.20;97.10;;;;;;4993051;28;20038;-59
2021/01/12 03:17:48;;;;;;;10.48;3.58;;;7.20;97.20;;;;;;4992834;28;20049;-59
2021/01/12 03:20:14;;;;;;;6.63;2.95;;;7.20;97.20;;;;;;4992829;28;20062;-59
2021/01/12 03:22:41;;;;;;;6.63;3.05;;;7.10;97.20;;;;;;4993009;28;20054;-58
2021/01/12 03:25:08;;;;;;;6.40;2.70;;;7.20;97.20;;;;;;4992795;28;20112;-59
2021/01/12 03:27:34;;;;;;;9.45;2.85;;;7.20;97.20;;;;;;4992769;28;20050;-59
2021/01/12 03:30:01;;;;;;;10.40;3.15;;;7.20;97.20;;;;;;4992857;28;20057;-59
2021/01/12 03:32:26;;;;;;;9.70;3.22;;;7.20;97.00;;;;;;4992482;28;20374;-59
2021/01/12 03:34:52;;;;;;;9.88;2.28;;;7.20;97.00;;;;;;4992725;28;20042;-59
2021/01/12 03:37:18;;;;;;;11.07;2.60;;;7.20;97.30;;;;;;4992576;28;20046;-59
2021/01/12 03:39:44;;;;;;;8.68;2.75;;;7.20;97.10;;;;;;4992708;28;20107;-59
2021/01/12 03:42:10;;;;;;;4.65;2.10;;;7.30;96.90;;;;;;4992365;28;20050;-59
2021/01/12 03:44:36;;;;;;;6.80;2.88;;;7.20;97.00;;;;;;4992496;28;20051;-59
2021/01/12 03:47:02;;;;;;;8.15;2.30;;;7.20;97.10;;;;;;4992329;28;20060;-59
2021/01/12 03:49:28;;;;;;;7.93;2.80;;;7.20;97.00;;;;;;4992631;28;20050;-59
2021/01/12 03:51:54;;;;;;;8.05;2.40;;;7.30;97.00;;;;;;4992190;28;20122;-59
2021/01/12 03:54:19;;;;;;;8.48;2.47;;;7.30;97.00;;;;;;4992419;28;20049;-58
2021/01/12 03:56:45;;;;;;;7.22;2.80;;;7.30;97.00;;;;;;4992488;28;20093;-59
2021/01/12 03:59:11;;;;;;;9.05;2.78;;;7.20;97.10;;;;;;4992449;28;20050;-59
2021/01/12 04:01:42;;;;;;;10.90;3.05;;;7.20;97.30;;;;;;4994409;28;20042;-59
2021/01/12 04:04:08;;;;;;;14.48;3.42;;;7.10;97.50;;;;;;4996024;28;20105;-59
2021/01/12 04:06:34;;;;;;;9.23;2.83;;;7.10;97.50;;;;;;4995907;28;20050;-59
2021/01/12 04:08:59;;;;;;;13.23;2.75;;;7.10;97.60;;;;;;4996144;28;20396;-59
2021/01/12 04:11:28;;;;;;;9.48;2.58;;;7.10;97.80;;;;;;4995448;28;20122;-59
2021/01/12 04:13:54;;;;;;;;;;;7.10;97.90;;;;;;4996139;28;20052;-59
2021/01/12 04:16:24;;;;;;;10.63;2.67;;;7.00;98.00;;;;;;4995418;28;19922;-59
2021/01/12 04:18:49;;;;;;;6.82;1.63;;;7.10;98.00;;;;;;4995732;28;20073;-60
2021/01/12 04:21:16;;;;;;;7.68;1.27;;;7.00;96.60;;;;;;4995493;28;20090;-59
2021/01/12 04:23:42;;;;;;;2.53;0.63;;;7.00;96.20;;;;;;4995654;28;20057;-60
2021/01/12 04:26:08;;;;;;;3.95;0.70;;;6.80;95.80;;;;;;4995226;28;20043;-59
2021/01/12 04:28:34;;;;;;;3.63;0.90;;;6.80;95.70;;;;;;4995565;28;20444;-59
2021/01/12 04:30:59;;;;;;;5.50;0.65;;;6.70;95.80;;;;;;4994971;28;20102;-59
2021/01/12 04:33:25;;;;;;;4.60;0.80;;;6.60;95.70;;;;;;4995265;28;20042;-59
2021/01/12 04:35:51;;;;;;;3.85;0.57;;;6.50;95.80;;;;;;4995635;28;20073;-60
2021/01/12 04:38:17;;;;;;;3.25;0.65;;;6.50;95.80;;;;;;4995578;28;20432;-60
2021/01/12 04:40:43;;;;;;;3.95;0.45;;;6.40;95.70;;;;;;4995330;28;20042;-60
2021/01/12 04:43:11;;;;;;;7.20;0.70;;;6.40;95.90;;;;;;4995298;28;20046;-59
2021/01/12 04:45:37;;;;;;;3.47;0.70;;;6.40;96.00;;;;;;4995436;28;20077;-59
2021/01/12 04:48:04;;;;;;;7.82;1.08;;;6.30;96.00;;;;;;4995609;28;20057;-59
2021/01/12 04:50:30;;;;;;;5.05;0.75;;;6.30;96.10;;;;;;4995260;28;20058;-59
2021/01/12 04:52:56;;;;;;;4.55;0.77;;;6.30;96.10;;;;;;4995487;28;20424;-60
2021/01/12 04:55:22;;;;;;;4.03;0.80;;;6.30;96.20;;;;;;4994806;28;20038;-60
2021/01/12 04:57:49;;;;;;;5.05;0.90;;;6.20;96.20;;;;;;4995212;28;20038;-59
2021/01/12 05:00:16;;;;;;;6.97;0.73;;;6.30;96.30;;;;;;4995226;28;20133;-59
2021/01/12 05:02:54;;;;;;;8.88;1.00;;;6.30;96.30;;;;;;4994866;28;20038;-59
2021/01/12 05:05:20;;;;;;;5.80;1.42;;;6.20;96.20;;;;;;4994716;28;20058;-59
2021/01/12 05:07:46;;;;;;;5.93;1.30;;;6.20;96.30;;;;;;4993271;28;20125;-60
2021/01/12 05:10:12;;;;;;;8.30;0.98;;;6.20;96.30;;;;;;4994909;28;20125;-59
2021/01/12 05:12:42;;;;;;;6.15;1.02;;;6.20;96.40;;;;;;4993737;28;20065;-59
2021/01/12 05:15:11;;;;;;;10.35;1.13;;;6.20;96.40;;;;;;4994864;28;20050;-60
2021/01/12 05:17:37;;;;;;;5.65;1.67;;;6.20;96.30;;;;;;4994563;28;20042;-59
2021/01/12 05:20:04;;;;;;;6.60;1.52;;;6.20;96.30;;;;;;4994393;28;20050;-59
2021/01/12 05:22:37;;;;;;;7.85;1.00;;;6.20;96.40;;;;;;4994851;28;20043;-59
2021/01/12 05:25:20;;;;;;;4.40;1.42;;;6.20;96.40;;;;;;4994620;28;20042;-59
2021/01/12 05:27:53;;;;;;;8.02;1.25;;;6.20;96.40;;;;;;4994707;28;20105;-59
2021/01/12 05:30:25;;;;;;;11.48;1.00;;;6.10;96.40;;;;;;4994354;28;20077;-59
2021/01/12 05:32:52;;;;;;;5.05;1.50;;;6.10;96.40;;;;;;4994534;28;20043;-59
2021/01/12 05:35:19;;;;;;;6.57;1.35;;;6.10;96.60;;;;;;4994630;28;20432;-59
2021/01/12 05:37:44;;;;;;;5.22;1.00;;;6.10;96.60;;;;;;4994517;28;20104;-59
2021/01/12 05:40:10;;;;;;;13.93;2.47;;;6.10;96.70;;;;;;4994508;28;20372;-59
2021/01/12 05:42:39;;;;;;;10.95;1.45;;;6.10;96.60;;;;;;4994248;28;20046;-59
2021/01/12 05:45:08;;;;;;;12.93;1.67;;;6.10;96.70;;;;;;4994221;28;20046;-59
2021/01/12 05:47:34;;;;;;;5.35;1.20;;;6.10;96.60;;;;;;4993862;28;20053;-59
2021/01/12 05:50:00;;;;;;;8.52;1.20;;;6.10;96.50;;;;;;4994639;28;20050;-59
2021/01/12 05:52:26;;;;;;;10.85;1.80;;;6.00;96.40;;;;;;4994143;28;21392;-59
2021/01/12 05:55:04;;;;;;;11.35;2.00;;;6.00;96.50;;;;;;4999581;28;20481;-59
2021/01/12 05:57:35;;;;;;;7.70;1.50;;;6.00;96.40;;;;;;4994045;28;20050;-59
2021/01/12 06:00:05;;;;;;;6.85;1.40;;;6.00;96.40;;;;;;4993883;28;20042;-59
2021/01/12 06:02:38;;;;;;;11.82;1.48;;;6.00;96.10;;;;;;4993700;28;20056;-59
2021/01/12 06:05:04;;;;;;;7.65;1.65;;;6.00;96.10;;;;;;4993945;28;20039;-59
2021/01/12 06:07:29;;;;;;;10.90;1.05;;;5.90;95.70;;;;;;4993320;28;20558;-59
2021/01/12 06:09:55;;;;;;;12.60;1.60;;;5.90;95.80;;;;;;4993487;28;20042;-60
2021/01/12 06:12:25;;;;;;;8.85;1.45;;;6.00;95.70;;;;;;4997407;28;20045;-59
2021/01/12 06:14:52;;;;;;;9.80;1.10;;;5.90;95.70;;;;;;4993488;28;20034;-60
2021/01/12 06:17:18;;;;;;;8.65;1.23;;;5.80;95.60;;;;;;4993730;28;20046;-59
2021/01/12 06:19:48;;;;;;;11.32;1.50;;;5.90;95.70;;;;;;4993262;28;20049;-59
2021/01/12 06:22:15;;;;;;;8.43;1.92;;;5.90;95.90;;;;;;4993905;28;20076;-59
2021/01/12 06:25:03;;;;;;;4.63;1.00;;;5.90;95.90;;;;;;4992349;28;20057;-59
2021/01/12 06:27:30;;;;;;;11.55;1.67;;;5.80;95.80;;;;;;4993687;28;20066;-59
2021/01/12 06:29:58;;;;;;;10.45;1.95;;;5.80;96.00;;;;;;4993419;28;20074;-59
2021/01/12 06:32:27;;;;;;;14.30;1.92;;;5.80;96.00;;;;;;4993277;28;20038;-59
2021/01/12 06:34:58;;;;;;;11.57;3.25;;;5.80;96.10;;;;;;4993248;28;20042;-59
2021/01/12 06:37:25;;;;;;;11.40;1.50;;;5.80;96.10;;;;;;4993130;28;20125;-59
2021/01/12 06:39:56;;;;;;;11.43;1.95;;;5.80;96.00;;;;;;4992935;28;20053;-59
2021/01/12 06:42:31;;;;;;;11.50;1.65;;;5.80;96.10;;;;;;4993030;28;20042;-59
2021/01/12 06:44:58;;;;;;;14.23;1.90;;;5.70;96.20;;;;;;4993414;28;20047;-59
2021/01/12 06:47:30;;;;;;;14.77;2.38;;;5.70;96.30;;;;;;4995154;28;20045;-59
2021/01/12 06:50:17;;;;;;;9.93;2.08;;;5.70;96.30;;;;;;4991749;28;20047;-59
2021/01/12 06:52:49;;;;;;;8.60;1.48;;;5.70;96.20;;;;;;4993122;28;20397;-59
2021/01/12 06:55:17;;;;;;;10.82;1.80;;;5.70;96.10;;;;;;4992927;28;20050;-59
2021/01/12 06:57:48;;;;;;;18.37;2.87;;;5.70;96.10;;;;;;4993256;28;20117;-59
2021/01/12 07:00:16;;;;;;;10.43;2.15;;;5.70;96.00;;;;;;4992832;28;20050;-59
2021/01/12 07:02:41;;;;;;;8.50;1.50;;;5.70;95.80;;;;;;4992978;28;20042;-59
2021/01/12 07:05:14;;;;;;;9.32;1.80;;;5.70;95.90;;;;;;4993008;28;20046;-59
2021/01/12 07:07:45;;;;;;;14.63;2.58;;;5.70;95.80;;;;;;4992894;28;20137;-59
2021/01/12 07:10:17;;;;;;;9.88;1.33;;;5.70;95.70;;;;;;4995744;28;20081;-59
2021/01/12 07:12:43;;;;;;;13.40;1.90;;;5.60;95.80;;;;;;4992846;28;20133;-59
2021/01/12 07:15:12;;;;;;;7.07;1.33;;;5.60;95.80;;;;;;4992836;28;20104;-59
2021/01/12 07:17:40;;;;;;;21.00;2.00;;;5.60;95.80;;;;;;4994874;28;20046;-59
2021/01/12 07:20:10;;;;;;;16.13;1.80;;;5.60;95.70;;;;;;4992664;28;20125;-60
2021/01/12 07:22:38;;;;;;;9.32;1.58;;;5.50;95.70;;;;;;4992608;28;20489;-59
2021/01/12 07:25:06;;;;;;;19.63;2.08;;;5.50;95.80;;;;;;4992720;28;20042;-59
2021/01/12 07:27:32;;;;;;;10.90;2.38;;;5.50;95.90;;;;;;4992547;28;20054;-59
2021/01/12 07:30:03;;;;;;;14.38;2.05;;;5.50;95.90;;;;;;4992768;28;20050;-59
2021/01/12 07:32:34;;;;;;;17.60;2.42;;;5.50;96.00;;;;;;4992612;28;20070;-59
2021/01/12 07:35:04;;;;;;;15.30;2.70;;;5.50;96.10;;;;;;4992774;28;20050;-59
2021/01/12 07:37:35;;;;;;;20.17;3.28;;;5.60;96.20;;;;;;4996568;28;20073;-59
2021/01/12 07:40:03;;;;;;;13.77;2.80;;;5.60;96.10;;;;;;4996694;28;20392;-59
2021/01/12 07:42:28;;;;;;;15.88;3.53;;;5.60;95.90;;;;;;4996094;28;20385;-59
2021/01/12 07:44:54;;;;;;;12.75;1.95;;;5.60;95.90;;;;;;4996346;28;20045;-59
2021/01/12 07:47:20;;;;;;;13.60;2.22;;;5.60;95.80;;;;;;4996138;28;20457;-59
2021/01/12 07:49:50;;;;;;;11.05;1.77;;;5.60;95.80;;;;;;4996899;28;20050;-59
2021/01/12 07:52:21;;;;;;;12.93;2.10;;;5.70;95.80;;;;;;4996094;28;20496;-59
2021/01/12 07:54:47;;;;;;;12.00;1.98;;;5.60;95.80;;;;;;4996150;28;20042;-59
2021/01/12 07:57:14;;;;;;;13.93;2.63;;;5.70;95.80;;;;;;4996227;28;20049;-59
2021/01/12 07:59:40;;;;;;;15.75;1.95;;;5.70;95.80;;;;;;4996127;28;20511;-59
2021/01/12 08:02:07;;;;;;;14.35;2.30;;;5.70;95.60;;;;;;4995870;28;20043;-59
2021/01/12 08:04:33;;;;;;;7.70;1.48;;;5.60;95.40;;;;;;4995825;28;20050;-59
2021/01/12 08:06:59;;;;;;;9.00;1.73;;;5.60;95.40;;;;;;4996054;28;20042;-59
2021/01/12 08:09:25;;;;;;;22.10;2.70;;;5.60;95.10;;;;;;4995794;28;20396;-59
2021/01/12 08:11:58;;;;;;;14.48;2.50;;;5.50;95.20;;;;;;4995600;28;20046;-59
2021/01/12 08:14:24;;;;;;;14.13;2.10;;;5.50;95.00;;;;;;4995447;28;20042;-59
2021/01/12 08:16:52;;;;;;;8.02;1.38;;;5.40;94.70;;;;;;4995590;28;20078;-59
2021/01/12 08:19:25;;;;;;;14.02;1.67;;;5.40;95.10;;;;;;4995295;28;20138;-59
2021/01/12 08:21:52;;;;;;;10.80;1.58;;;5.40;94.70;;;;;;4995644;28;20097;-59
2021/01/12 08:24:22;;;;;;;14.25;1.65;;;5.40;95.10;;;;;;4995265;28;20050;-59
2021/01/12 08:26:49;;;;;;;11.75;1.90;;;5.30;94.80;;;;;;4995415;28;20038;-59
2021/01/12 08:29:25;;;;;;;14.48;1.85;;;5.30;94.90;;;;;;4993932;28;20046;-60
2021/01/12 08:32:08;;;;;;;11.38;1.35;;;5.30;95.40;;;;;;4994885;28;20034;-60
2021/01/12 08:35:00;;;;;;;15.10;2.28;;;5.30;95.30;;;;;;4995057;28;20100;-60
2021/01/12 08:37:27;;;;;;;4.80;0.98;;;5.30;94.90;;;;;;4992364;28;20038;-60
2021/01/12 08:39:56;;;;;;;10.30;1.50;;;5.30;95.20;;;;;;4995208;28;20046;-60
2021/01/12 08:42:23;;;;;;;9.98;1.48;;;5.20;95.20;;;;;;4995029;28;20049;-60
2021/01/12 08:44:49;;;;;;;7.10;0.93;;;5.30;95.10;;;;;;4995135;28;20050;-60
2021/01/12 08:47:27;;;;;;;6.10;1.67;;;5.30;94.70;;;;;;4993760;28;20042;-60
2021/01/12 08:50:04;;;;;;;6.40;1.00;;;5.30;95.00;;;;;;4995173;28;20057;-60
2021/01/12 08:52:31;;;;;;;7.70;1.33;;;5.20;94.50;;;;;;4994829;28;20455;-60
2021/01/12 08:54:58;;;;;;;5.10;1.05;;;5.20;95.00;;;;;;4994702;28;20386;-60
2021/01/12 08:57:24;;;;;;;12.98;1.30;;;5.30;94.70;;;;;;4994152;28;20489;-60
2021/01/12 08:59:49;;;;;;;6.95;1.38;;;5.20;94.70;;;;;;4994540;28;20050;-60
2021/01/12 09:02:20;;;;;;;9.13;1.50;;;5.20;94.30;;;;;;4994711;28;20046;-60
2021/01/12 09:04:59;;;;;;;4.85;1.20;;;5.10;94.30;;;;;;4994176;28;20035;-60
2021/01/12 09:07:25;;;;;;;11.07;1.48;;;5.20;94.70;;;;;;4994195;28;20457;-60
2021/01/12 09:09:53;;;;;;;5.28;1.52;;;5.10;94.30;;;;;;4994438;28;20053;-60
2021/01/12 09:12:19;;;;;;;9.15;1.88;;;5.10;94.30;;;;;;4994563;28;20046;-60
2021/01/12 09:14:49;;;;;;;7.68;1.50;;;5.10;94.10;;;;;;4994129;28;20523;-60
2021/01/12 09:17:17;;;;;;;9.25;1.60;;;5.10;94.10;;;;;;4994383;28;20437;-60
2021/01/12 09:19:47;;;;;;;4.63;1.50;;;5.20;94.20;;;;;;4993950;28;20390;-60
2021/01/12 09:22:15;;;;;;;7.75;2.50;;;5.30;94.40;;;;;;4994223;28;20081;-59
2021/01/12 09:24:52;;;;;;;9.07;1.70;;;5.40;94.20;;;;;;4993819;28;20049;-60
2021/01/12 09:27:20;;;;;;;7.22;1.65;;;5.50;93.80;;;;;;4994284;28;20093;-59
2021/01/12 09:29:46;;;;;;;10.07;1.30;;;5.50;93.60;;;;;;4994157;28;20046;-59
2021/01/12 09:32:12;;;;;;;5.65;1.35;;;5.50;93.30;;;;;;4994082;28;20039;-59
2021/01/12 09:34:41;;;;;;;9.10;1.67;;;5.50;93.40;;;;;;4987640;28;20070;-59
2021/01/12 09:37:17;;;;;;;5.72;1.70;;;5.50;92.40;;;;;;4990144;28;20070;-60
2021/01/12 09:39:44;;;;;;;5.55;1.60;;;5.40;92.50;;;;;;4993901;28;20062;-59
2021/01/12 09:42:10;;;;;;;9.05;2.47;;;5.40;92.30;;;;;;4993797;28;20054;-59
2021/01/12 09:44:36;;;;;;;6.20;2.55;;;5.30;91.50;;;;;;4993897;28;20046;-60
2021/01/12 09:47:03;;;;;;;8.25;2.10;;;5.40;92.30;;;;;;4993440;28;20046;-59
2021/01/12 09:49:28;;;;;;;9.25;1.95;;;5.40;91.00;;;;;;4993823;28;20122;-60
2021/01/12 09:51:54;;;;;;;9.32;1.50;;;5.50;91.30;;;;;;4993484;28;20121;-60
2021/01/12 09:54:20;;;;;;;4.57;1.45;;;5.60;90.40;;;;;;4993581;28;20046;-60
2021/01/12 09:56:46;;;;;;;10.20;1.00;;;5.60;90.30;;;;;;4993982;28;20054;-60
2021/01/12 09:59:12;;;;;;;5.00;0.73;;;5.60;91.40;;;;;;4991727;28;20134;-59
2021/01/12 10:01:37;;;;;;;3.05;0.65;;;5.90;89.80;;;;;;4993192;28;20050;-60
2021/01/12 10:04:03;;;;;;;11.13;1.58;;;5.90;89.10;;;;;;4993237;28;20042;-60
2021/01/12 10:06:31;;;;;;;4.70;0.93;;;6.00;90.00;;;;;;4993049;28;20555;-59
2021/01/12 10:08:56;;;;;;;4.95;1.00;;;6.00;88.10;;;;;;4993236;28;20050;-60
2021/01/12 10:11:23;;;;;;;6.82;0.95;;;6.10;87.90;;;;;;4992510;28;20396;-60
2021/01/12 10:13:49;;;;;;;8.07;0.90;;;6.10;86.30;;;;;;4993180;28;20037;-60
2021/01/12 10:16:25;;;;;;;8.93;1.88;;;6.20;86.70;;;;;;4993091;28;20042;-59
2021/01/12 10:18:51;;;;;;;4.75;0.70;;;6.30;85.40;;;;;;4992996;28;20049;-60
2021/01/12 10:21:18;;;;;;;6.13;1.05;;;6.50;85.90;;;;;;4992836;28;20078;-60
2021/01/12 10:23:45;;;;;;;11.10;1.33;;;6.60;86.40;;;;;;4993210;28;20137;-60
2021/01/12 10:26:17;;;;;;;5.15;0.80;;;6.80;84.30;;;;;;4992890;28;20046;-60
2021/01/12 10:28:45;;;;;;;7.05;1.20;;;6.80;81.50;;;;;;4992687;28;20045;-61
2021/01/12 10:31:13;;;;;;;8.70;1.50;;;6.70;82.90;;;;;;4992554;28;20042;-61
2021/01/12 10:33:40;;;;;;;3.33;0.70;;;6.60;83.50;;;;;;4988933;28;20546;-61
2021/01/12 10:36:06;;;;;;;13.02;1.50;;;6.60;85.20;;;;;;4992730;28;20065;-61
2021/01/12 10:38:32;;;;;;;4.22;1.15;;;6.50;82.10;;;;;;4992613;28;20046;-61
2021/01/12 10:40:58;;;;;;;4.70;1.33;;;6.40;84.70;;;;;;4992453;28;20045;-60
2021/01/12 10:43:25;;;;;;;4.43;1.27;;;6.50;82.90;;;;;;4992403;28;20038;-60
2021/01/12 10:45:51;;;;;;;6.10;1.35;;;6.60;83.80;;;;;;4992357;28;20113;-60
2021/01/12 10:48:17;;;;;;;6.22;1.20;;;6.80;84.60;;;;;;4992309;28;20049;-61
2021/01/12 10:50:43;;;;;;;9.55;1.20;;;6.80;83.70;;;;;;4992131;28;20473;-60
2021/01/12 10:53:08;;;;;;;12.95;1.98;;;6.80;81.90;;;;;;4992325;28;20093;-61
2021/01/12 10:55:34;;;;;;;8.52;1.20;;;6.70;82.10;;;;;;4992480;28;20046;-60
2021/01/12 10:58:00;;;;;;;7.13;0.95;;;6.50;83.10;;;;;;4992769;28;20050;-60
2021/01/12 11:00:26;;;;;;;7.78;1.33;;;6.60;81.30;;;;;;4992024;28;20495;-61
2021/01/12 11:02:53;;;;;;;8.50;1.30;;;6.70;83.50;;;;;;4991950;28;20129;-63
2021/01/12 11:05:19;;;;;;;5.20;1.63;;;6.80;84.00;;;;;;4992310;28;20053;-63
2021/01/12 11:07:45;;;;;;;3.30;0.73;;;7.70;80.20;;;;;;4991950;28;20480;-63
2021/01/12 11:10:11;;;;;;;5.70;1.08;;;8.20;78.30;;;;;;4993156;28;20046;-63
2021/01/12 11:12:37;;;;;;;7.65;0.93;;;8.30;78.10;;;;;;4998617;28;20046;-63
2021/01/12 11:15:04;;;;;;;9.43;1.58;;;8.40;78.30;;;;;;4998301;28;20133;-64
2021/01/12 11:17:30;;;;;;;6.57;1.88;;;8.40;76.10;;;;;;5008567;28;20049;-63
2021/01/12 11:19:56;;;;;;;6.97;0.90;;;8.70;77.20;;;;;;4999319;28;20046;-63
2021/01/12 11:22:28;;;;;;;7.13;1.83;;;8.40;77.80;;;;;;4998201;28;20042;-63
2021/01/12 11:25:01;;;;;;;4.60;1.10;;;8.40;76.30;;;;;;4998096;28;20522;-64
2021/01/12 11:27:28;;;;;;;7.05;1.35;;;8.30;75.50;;;;;;4998450;28;20062;-64
2021/01/12 11:29:54;;;;;;;7.93;1.27;;;8.50;76.70;;;;;;5000353;28;20042;-64
2021/01/12 11:32:21;;;;;;;11.77;1.35;;;8.60;75.80;;;;;;4998678;28;20057;-64
2021/01/12 11:34:47;;;;;;;11.27;2.22;;;8.40;77.30;;;;;;4998639;28;20086;-64
2021/01/12 11:37:13;;;;;;;8.77;1.63;;;8.30;75.70;;;;;;5002076;28;20077;-63
2021/01/12 11:39:39;;;;;;;11.30;1.92;;;8.50;76.50;;;;;;5011025;28;20131;-63
2021/01/12 11:42:09;;;;;;;12.60;1.65;;;8.40;77.30;;;;;;5002645;28;20042;-64
2021/01/12 11:44:35;;;;;;;10.52;2.10;;;8.50;76.50;;;;;;4998620;28;20046;-64
2021/01/12 11:47:01;;;;;;;10.05;1.58;;;9.20;72.90;;;;;;4998712;28;20047;-63
2021/01/12 11:49:27;;;;;;;8.82;1.85;;;9.00;73.10;;;;;;4998522;28;20038;-63
2021/01/12 11:51:53;;;;;;;7.97;1.80;;;9.20;71.40;;;;;;5000311;28;20424;-64
2021/01/12 11:54:19;;;;;;;8.65;1.63;;;9.60;72.50;;;;;;4999484;28;20093;-64
2021/01/12 11:56:55;;;;;;;7.28;1.40;;;9.80;72.20;;;;;;4997862;28;20050;-63
2021/01/12 11:59:24;;;;;;;8.48;1.95;;;10.20;69.40;;;;;;4997781;28;20113;-64
2021/01/12 12:01:55;;;;;;;11.32;2.15;;;10.20;68.70;;;;;;4998040;28;20050;-64
2021/01/12 12:04:22;;;;;;;13.55;2.03;;;10.00;68.40;;;;;;4998290;28;20034;-64
2021/01/12 12:07:00;;;;;;;10.18;1.90;;;9.20;70.40;;;;;;4997925;28;20459;-64
2021/01/12 12:09:27;;;;;;;7.00;1.75;;;8.90;72.20;;;;;;4998151;28;20054;-64
2021/01/12 12:11:53;;;;;;;9.48;1.38;;;8.40;75.70;;;;;;4998011;28;20492;-64
2021/01/12 12:14:19;;;;;;;8.27;1.83;;;7.70;77.80;;;;;;4998296;28;20108;-63
2021/01/12 12:16:46;;;;;;;10.50;1.85;;;7.20;79.70;;;;;;4998451;28;20042;-64
2021/01/12 12:19:15;;;;;;;8.57;1.48;;;7.20;80.20;;;;;;4998024;28;20046;-63
2021/01/12 12:21:46;;;;;;;4.45;1.10;;;6.70;81.60;;;;;;4997277;28;20092;-63
2021/01/12 12:24:16;;;;;;;7.57;1.73;;;6.00;84.80;;;;;;4994824;28;20050;-63
2021/01/12 12:26:43;;;;;;;13.40;3.83;;;5.70;88.90;;;;;;4992965;28;20046;-64
2021/01/12 12:29:09;;;;;;;9.13;1.98;;;5.70;86.60;;;;;;4994623;28;20484;-63
2021/01/12 12:31:35;;;;;;;7.95;2.45;;;5.50;89.60;;;;;;4994390;28;20089;-64
2021/01/12 12:34:01;;;;;;;5.63;1.80;;;5.60;89.10;;;;;;4994551;28;20039;-64
2021/01/12 12:36:27;;;;;;;6.95;1.25;;;5.90;88.40;;;;;;4994435;28;20038;-64
2021/01/12 12:38:52;;;;;;;9.38;1.38;;;5.90;87.90;;;;;;4994650;28;20452;-63
2021/01/12 12:41:18;;;;;;;8.63;1.17;;;5.80;87.80;;;;;;4994599;28;20050;-64
2021/01/12 12:43:45;;;;;;;14.18;2.15;;;5.90;87.20;;;;;;4994517;28;20042;-64
2021/01/12 12:46:13;;;;;;;8.70;1.52;;;5.70;88.00;;;;;;4994360;28;20484;-63
2021/01/12 12:48:39;;;;;;;13.55;1.98;;;5.60;89.60;;;;;;4994406;28;20050;-64
2021/01/12 12:51:06;;;;;;;8.32;2.00;;;5.50;89.50;;;;;;4994631;28;20145;-64
2021/01/12 12:53:38;;;;;;;9.13;1.33;;;5.50;89.70;;;;;;4994482;28;20373;-64
2021/01/12 12:56:11;;;;;;;7.70;1.25;;;5.60;90.00;;;;;;4994004;28;20408;-64
2021/01/12 12:58:37;;;;;;;14.68;2.35;;;5.50;90.20;;;;;;4994223;28;20062;-63